sensor_id;sensor_type;location;lat;lon;timestamp;pressure;altitude;pressure_sealevel;temperature
79488;BMP180;68949;53.176;18.088;2023-07-24T00:01:45;99591.00;;;
79488;BMP180;68949;53.176;18.088;2023-07-24T00:04:12;99588.80;;;
79488;BMP180;68949;53.176;18.088;2023-07-24T00:06:39;99585.20;;;
79488;BMP180;68949;53.176;18.088;2023-07-24T00:09:05;99582.20;;;
79488;BMP180;68949;53.176;18.088;2023-07-24T00:11:32;99577.60;;;
79488;BMP180;68949;53.176;18.088;2023-07-24T00:13:58;99573.60;;;
79488;BMP180;68949;53.176;18.088;2023-07-24T00:16:25;99571.60;;;
79488;BMP180;68949;53.176;18.088;2023-07-24T00:18:52;99572.00;;;
79488;BMP180;68949;53.176;18.088;2023-07-24T00:21:18;99571.40;;;
79488;BMP180;68949;53.176;18.088;2023-07-24T00:23:45;99562.80;;;
79488;BMP180;68949;53.176;18.088;2023-07-24T00:26:11;99565.40;;;
79488;BMP180;68949;53.176;18.088;2023-07-24T00:28:38;99562.60;;;
79488;BMP180;68949;53.176;18.088;2023-07-24T00:31:05;99559.40;;;
79488;BMP180;68949;53.176;18.088;2023-07-24T00:33:31;99561.80;;;
79488;BMP180;68949;53.176;18.088;2023-07-24T00:35:58;99563.60;;;
79488;BMP180;68949;53.176;18.088;2023-07-24T00:38:25;99571.40;;;
79488;BMP180;68949;53.176;18.088;2023-07-24T00:40:52;99572.60;;;
79488;BMP180;68949;53.176;18.088;2023-07-24T00:43:18;99588.80;;;
79488;BMP180;68949;53.176;18.088;2023-07-24T00:45:46;99588.40;;;
79488;BMP180;68949;53.176;18.088;2023-07-24T00:48:15;99587.40;;;
79488;BMP180;68949;53.176;18.088;2023-07-24T00:50:44;99589.00;;;
79488;BMP180;68949;53.176;18.088;2023-07-24T00:53:12;99583.80;;;
79488;BMP180;68949;53.176;18.088;2023-07-24T00:55:41;99585.20;;;
79488;BMP180;68949;53.176;18.088;2023-07-24T00:58:11;99585.40;;;
79488;BMP180;68949;53.176;18.088;2023-07-24T01:00:40;99585.80;;;
79488;BMP180;68949;53.176;18.088;2023-07-24T01:03:07;99578.20;;;
79488;BMP180;68949;53.176;18.088;2023-07-24T01:05:35;99587.40;;;
79488;BMP180;68949;53.176;18.088;2023-07-24T01:08:04;99586.00;;;
79488;BMP180;68949;53.176;18.088;2023-07-24T01:10:31;99587.00;;;
79488;BMP180;68949;53.176;18.088;2023-07-24T01:13:05;99595.00;;;
79488;BMP180;68949;53.176;18.088;2023-07-24T01:18:25;99586.20;;;
79488;BMP180;68949;53.176;18.088;2023-07-24T01:20:57;99587.20;;;
79488;BMP180;68949;53.176;18.088;2023-07-24T01:24:09;99585.60;;;
79488;BMP180;68949;53.176;18.088;2023-07-24T01:26:41;99584.20;;;
79488;BMP180;68949;53.176;18.088;2023-07-24T01:29:08;99589.00;;;
79488;BMP180;68949;53.176;18.088;2023-07-24T01:31:35;99586.40;;;
79488;BMP180;68949;53.176;18.088;2023-07-24T01:34:01;99574.60;;;
79488;BMP180;68949;53.176;18.088;2023-07-24T01:36:28;99573.60;;;
79488;BMP180;68949;53.176;18.088;2023-07-24T01:38:56;99570.40;;;
79488;BMP180;68949;53.176;18.088;2023-07-24T01:41:23;99569.80;;;
79488;BMP180;68949;53.176;18.088;2023-07-24T01:43:51;99574.60;;;
79488;BMP180;68949;53.176;18.088;2023-07-24T01:46:17;99565.80;;;
79488;BMP180;68949;53.176;18.088;2023-07-24T01:48:44;99563.60;;;
79488;BMP180;68949;53.176;18.088;2023-07-24T01:51:11;99555.60;;;
79488;BMP180;68949;53.176;18.088;2023-07-24T01:53:37;99553.40;;;
79488;BMP180;68949;53.176;18.088;2023-07-24T01:56:04;99556.00;;;
79488;BMP180;68949;53.176;18.088;2023-07-24T01:58:31;99549.60;;;
79488;BMP180;68949;53.176;18.088;2023-07-24T02:00:57;99556.80;;;
79488;BMP180;68949;53.176;18.088;2023-07-24T02:03:24;99562.00;;;
79488;BMP180;68949;53.176;18.088;2023-07-24T02:05:51;99563.40;;;
79488;BMP180;68949;53.176;18.088;2023-07-24T02:08:18;99560.20;;;
79488;BMP180;68949;53.176;18.088;2023-07-24T02:10:49;99560.80;;;
79488;BMP180;68949;53.176;18.088;2023-07-24T02:13:16;99565.00;;;
79488;BMP180;68949;53.176;18.088;2023-07-24T02:15:48;99563.60;;;
79488;BMP180;68949;53.176;18.088;2023-07-24T02:18:15;99565.20;;;
79488;BMP180;68949;53.176;18.088;2023-07-24T02:20:41;99564.20;;;
79488;BMP180;68949;53.176;18.088;2023-07-24T02:23:14;99569.60;;;
79488;BMP180;68949;53.176;18.088;2023-07-24T02:25:41;99566.80;;;
79488;BMP180;68949;53.176;18.088;2023-07-24T02:28:07;99569.40;;;
79488;BMP180;68949;53.176;18.088;2023-07-24T02:30:39;99570.60;;;
79488;BMP180;68949;53.176;18.088;2023-07-24T02:33:05;99575.00;;;
79488;BMP180;68949;53.176;18.088;2023-07-24T02:35:39;99576.80;;;
79488;BMP180;68949;53.176;18.088;2023-07-24T02:38:08;99572.20;;;
79488;BMP180;68949;53.176;18.088;2023-07-24T02:40:35;99568.80;;;
79488;BMP180;68949;53.176;18.088;2023-07-24T02:43:02;99561.80;;;
79488;BMP180;68949;53.176;18.088;2023-07-24T02:45:29;99560.60;;;
79488;BMP180;68949;53.176;18.088;2023-07-24T02:47:57;99569.60;;;
79488;BMP180;68949;53.176;18.088;2023-07-24T02:50:24;99559.60;;;
79488;BMP180;68949;53.176;18.088;2023-07-24T02:52:50;99559.60;;;
79488;BMP180;68949;53.176;18.088;2023-07-24T02:55:17;99560.40;;;
79488;BMP180;68949;53.176;18.088;2023-07-24T02:57:44;99549.40;;;
79488;BMP180;68949;53.176;18.088;2023-07-24T03:00:11;99540.00;;;
79488;BMP180;68949;53.176;18.088;2023-07-24T03:02:39;99545.00;;;
79488;BMP180;68949;53.176;18.088;2023-07-24T03:05:06;99554.20;;;
79488;BMP180;68949;53.176;18.088;2023-07-24T03:07:34;99553.60;;;
79488;BMP180;68949;53.176;18.088;2023-07-24T03:10:02;99552.40;;;
79488;BMP180;68949;53.176;18.088;2023-07-24T03:12:30;99551.00;;;
79488;BMP180;68949;53.176;18.088;2023-07-24T03:14:57;99545.80;;;
79488;BMP180;68949;53.176;18.088;2023-07-24T03:17:23;99543.60;;;
79488;BMP180;68949;53.176;18.088;2023-07-24T03:19:50;99535.80;;;
79488;BMP180;68949;53.176;18.088;2023-07-24T03:22:17;99540.00;;;
79488;BMP180;68949;53.176;18.088;2023-07-24T03:24:43;99546.20;;;
79488;BMP180;68949;53.176;18.088;2023-07-24T03:27:10;99544.20;;;
79488;BMP180;68949;53.176;18.088;2023-07-24T03:29:37;99540.80;;;
79488;BMP180;68949;53.176;18.088;2023-07-24T03:32:04;99540.80;;;
79488;BMP180;68949;53.176;18.088;2023-07-24T03:34:30;99549.40;;;
79488;BMP180;68949;53.176;18.088;2023-07-24T03:36:57;99552.80;;;
79488;BMP180;68949;53.176;18.088;2023-07-24T03:39:23;99556.80;;;
79488;BMP180;68949;53.176;18.088;2023-07-24T03:41:50;99554.00;;;
79488;BMP180;68949;53.176;18.088;2023-07-24T03:44:17;99554.60;;;
79488;BMP180;68949;53.176;18.088;2023-07-24T03:46:43;99562.80;;;
79488;BMP180;68949;53.176;18.088;2023-07-24T03:49:10;99556.80;;;
79488;BMP180;68949;53.176;18.088;2023-07-24T03:51:36;99549.20;;;
79488;BMP180;68949;53.176;18.088;2023-07-24T03:54:03;99548.80;;;
79488;BMP180;68949;53.176;18.088;2023-07-24T03:56:30;99545.60;;;
79488;BMP180;68949;53.176;18.088;2023-07-24T03:58:56;99546.20;;;
79488;BMP180;68949;53.176;18.088;2023-07-24T04:01:23;99549.80;;;
79488;BMP180;68949;53.176;18.088;2023-07-24T04:03:49;99552.60;;;
79488;BMP180;68949;53.176;18.088;2023-07-24T04:06:16;99554.60;;;
79488;BMP180;68949;53.176;18.088;2023-07-24T04:08:43;99561.60;;;
79488;BMP180;68949;53.176;18.088;2023-07-24T04:11:09;99563.80;;;
79488;BMP180;68949;53.176;18.088;2023-07-24T04:13:36;99561.40;;;
79488;BMP180;68949;53.176;18.088;2023-07-24T04:16:03;99563.60;;;
79488;BMP180;68949;53.176;18.088;2023-07-24T04:18:29;99563.40;;;
79488;BMP180;68949;53.176;18.088;2023-07-24T04:20:56;99563.60;;;
79488;BMP180;68949;53.176;18.088;2023-07-24T04:23:23;99559.20;;;
79488;BMP180;68949;53.176;18.088;2023-07-24T04:25:50;99559.80;;;
79488;BMP180;68949;53.176;18.088;2023-07-24T04:28:17;99561.00;;;
79488;BMP180;68949;53.176;18.088;2023-07-24T04:30:43;99558.40;;;
79488;BMP180;68949;53.176;18.088;2023-07-24T04:33:10;99553.80;;;
79488;BMP180;68949;53.176;18.088;2023-07-24T04:35:37;99558.40;;;
79488;BMP180;68949;53.176;18.088;2023-07-24T04:38:03;99564.60;;;
79488;BMP180;68949;53.176;18.088;2023-07-24T04:40:30;99562.80;;;
79488;BMP180;68949;53.176;18.088;2023-07-24T04:42:57;99562.40;;;
79488;BMP180;68949;53.176;18.088;2023-07-24T04:45:24;99558.80;;;
79488;BMP180;68949;53.176;18.088;2023-07-24T04:47:51;99554.60;;;
79488;BMP180;68949;53.176;18.088;2023-07-24T04:50:17;99552.60;;;
79488;BMP180;68949;53.176;18.088;2023-07-24T04:52:44;99560.20;;;
79488;BMP180;68949;53.176;18.088;2023-07-24T04:55:11;99560.80;;;
79488;BMP180;68949;53.176;18.088;2023-07-24T04:57:40;99565.80;;;
79488;BMP180;68949;53.176;18.088;2023-07-24T05:00:08;99563.20;;;
79488;BMP180;68949;53.176;18.088;2023-07-24T05:02:35;99559.40;;;
79488;BMP180;68949;53.176;18.088;2023-07-24T05:05:02;99563.80;;;
79488;BMP180;68949;53.176;18.088;2023-07-24T05:07:28;99571.20;;;
79488;BMP180;68949;53.176;18.088;2023-07-24T05:09:55;99575.80;;;
79488;BMP180;68949;53.176;18.088;2023-07-24T05:12:22;99581.60;;;
79488;BMP180;68949;53.176;18.088;2023-07-24T05:14:48;99577.20;;;
79488;BMP180;68949;53.176;18.088;2023-07-24T05:17:15;99573.40;;;
79488;BMP180;68949;53.176;18.088;2023-07-24T05:19:42;99576.00;;;
79488;BMP180;68949;53.176;18.088;2023-07-24T05:22:09;99576.80;;;
79488;BMP180;68949;53.176;18.088;2023-07-24T05:24:37;99580.80;;;
79488;BMP180;68949;53.176;18.088;2023-07-24T05:27:05;99582.60;;;
79488;BMP180;68949;53.176;18.088;2023-07-24T05:29:32;99591.00;;;
79488;BMP180;68949;53.176;18.088;2023-07-24T05:31:59;99589.60;;;
79488;BMP180;68949;53.176;18.088;2023-07-24T05:34:25;99585.40;;;
79488;BMP180;68949;53.176;18.088;2023-07-24T05:36:52;99582.40;;;
79488;BMP180;68949;53.176;18.088;2023-07-24T05:39:19;99580.20;;;
79488;BMP180;68949;53.176;18.088;2023-07-24T05:41:47;99589.60;;;
79488;BMP180;68949;53.176;18.088;2023-07-24T05:44:15;99580.20;;;
79488;BMP180;68949;53.176;18.088;2023-07-24T05:46:41;99586.00;;;
79488;BMP180;68949;53.176;18.088;2023-07-24T05:49:08;99585.40;;;
79488;BMP180;68949;53.176;18.088;2023-07-24T05:51:35;99579.40;;;
79488;BMP180;68949;53.176;18.088;2023-07-24T05:54:01;99581.00;;;
79488;BMP180;68949;53.176;18.088;2023-07-24T05:56:28;99571.80;;;
79488;BMP180;68949;53.176;18.088;2023-07-24T05:58:57;99572.40;;;
79488;BMP180;68949;53.176;18.088;2023-07-24T06:01:24;99587.40;;;
79488;BMP180;68949;53.176;18.088;2023-07-24T06:03:51;99610.60;;;
79488;BMP180;68949;53.176;18.088;2023-07-24T06:06:17;99624.00;;;
79488;BMP180;68949;53.176;18.088;2023-07-24T06:08:44;99639.60;;;
79488;BMP180;68949;53.176;18.088;2023-07-24T06:11:11;99642.60;;;
79488;BMP180;68949;53.176;18.088;2023-07-24T06:13:37;99645.00;;;
79488;BMP180;68949;53.176;18.088;2023-07-24T06:16:04;99643.60;;;
79488;BMP180;68949;53.176;18.088;2023-07-24T06:18:34;99643.20;;;
79488;BMP180;68949;53.176;18.088;2023-07-24T06:21:01;99648.20;;;
79488;BMP180;68949;53.176;18.088;2023-07-24T06:23:28;99638.60;;;
79488;BMP180;68949;53.176;18.088;2023-07-24T06:25:55;99635.20;;;
79488;BMP180;68949;53.176;18.088;2023-07-24T06:28:21;99628.20;;;
79488;BMP180;68949;53.176;18.088;2023-07-24T06:30:52;99628.60;;;
79488;BMP180;68949;53.176;18.088;2023-07-24T06:33:21;99622.20;;;
79488;BMP180;68949;53.176;18.088;2023-07-24T06:35:49;99622.00;;;
79488;BMP180;68949;53.176;18.088;2023-07-24T06:38:16;99625.40;;;
79488;BMP180;68949;53.176;18.088;2023-07-24T06:40:43;99621.00;;;
79488;BMP180;68949;53.176;18.088;2023-07-24T06:43:11;99613.40;;;
79488;BMP180;68949;53.176;18.088;2023-07-24T06:45:37;99608.20;;;
79488;BMP180;68949;53.176;18.088;2023-07-24T06:48:04;99606.20;;;
79488;BMP180;68949;53.176;18.088;2023-07-24T06:50:31;99594.00;;;
79488;BMP180;68949;53.176;18.088;2023-07-24T06:52:57;99595.00;;;
79488;BMP180;68949;53.176;18.088;2023-07-24T06:55:24;99585.00;;;
79488;BMP180;68949;53.176;18.088;2023-07-24T06:57:50;99577.40;;;
79488;BMP180;68949;53.176;18.088;2023-07-24T07:00:17;99578.60;;;
79488;BMP180;68949;53.176;18.088;2023-07-24T07:02:44;99574.00;;;
79488;BMP180;68949;53.176;18.088;2023-07-24T07:05:11;99566.20;;;
79488;BMP180;68949;53.176;18.088;2023-07-24T07:07:37;99563.20;;;
79488;BMP180;68949;53.176;18.088;2023-07-24T07:10:07;99562.20;;;
79488;BMP180;68949;53.176;18.088;2023-07-24T07:12:34;99565.20;;;
79488;BMP180;68949;53.176;18.088;2023-07-24T07:15:00;99563.20;;;
79488;BMP180;68949;53.176;18.088;2023-07-24T07:17:27;99564.60;;;
79488;BMP180;68949;53.176;18.088;2023-07-24T07:19:53;99562.40;;;
79488;BMP180;68949;53.176;18.088;2023-07-24T07:22:22;99560.20;;;
79488;BMP180;68949;53.176;18.088;2023-07-24T07:24:49;99558.20;;;
79488;BMP180;68949;53.176;18.088;2023-07-24T07:27:16;99563.20;;;
79488;BMP180;68949;53.176;18.088;2023-07-24T07:29:45;99559.20;;;
79488;BMP180;68949;53.176;18.088;2023-07-24T07:32:12;99554.00;;;
79488;BMP180;68949;53.176;18.088;2023-07-24T07:34:39;99557.00;;;
79488;BMP180;68949;53.176;18.088;2023-07-24T07:37:06;99550.80;;;
79488;BMP180;68949;53.176;18.088;2023-07-24T07:39:33;99552.00;;;
79488;BMP180;68949;53.176;18.088;2023-07-24T07:42:00;99545.60;;;
79488;BMP180;68949;53.176;18.088;2023-07-24T07:44:27;99543.80;;;
79488;BMP180;68949;53.176;18.088;2023-07-24T07:46:53;99546.00;;;
79488;BMP180;68949;53.176;18.088;2023-07-24T07:49:20;99538.40;;;
79488;BMP180;68949;53.176;18.088;2023-07-24T07:51:46;99531.20;;;
79488;BMP180;68949;53.176;18.088;2023-07-24T07:54:13;99545.40;;;
79488;BMP180;68949;53.176;18.088;2023-07-24T07:56:40;99535.20;;;
79488;BMP180;68949;53.176;18.088;2023-07-24T07:59:06;99538.20;;;
79488;BMP180;68949;53.176;18.088;2023-07-24T08:01:35;99519.40;;;
79488;BMP180;68949;53.176;18.088;2023-07-24T08:04:02;99517.00;;;
79488;BMP180;68949;53.176;18.088;2023-07-24T08:06:29;99504.80;;;
79488;BMP180;68949;53.176;18.088;2023-07-24T08:08:55;99505.60;;;
79488;BMP180;68949;53.176;18.088;2023-07-24T08:11:22;99488.60;;;
79488;BMP180;68949;53.176;18.088;2023-07-24T08:13:48;99491.60;;;
79488;BMP180;68949;53.176;18.088;2023-07-24T08:16:15;99496.80;;;
79488;BMP180;68949;53.176;18.088;2023-07-24T08:18:46;99490.40;;;
79488;BMP180;68949;53.176;18.088;2023-07-24T08:21:15;99481.20;;;
79488;BMP180;68949;53.176;18.088;2023-07-24T08:23:42;99464.00;;;
79488;BMP180;68949;53.176;18.088;2023-07-24T08:26:09;99449.40;;;
79488;BMP180;68949;53.176;18.088;2023-07-24T08:28:35;99453.60;;;
79488;BMP180;68949;53.176;18.088;2023-07-24T08:31:02;99450.80;;;
79488;BMP180;68949;53.176;18.088;2023-07-24T08:33:29;99439.40;;;
79488;BMP180;68949;53.176;18.088;2023-07-24T08:36:05;99427.40;;;
79488;BMP180;68949;53.176;18.088;2023-07-24T08:38:33;99429.00;;;
79488;BMP180;68949;53.176;18.088;2023-07-24T08:41:10;99409.60;;;
79488;BMP180;68949;53.176;18.088;2023-07-24T08:43:41;99395.20;;;
79488;BMP180;68949;53.176;18.088;2023-07-24T08:46:09;99375.00;;;
79488;BMP180;68949;53.176;18.088;2023-07-24T08:48:40;99389.40;;;
79488;BMP180;68949;53.176;18.088;2023-07-24T08:51:10;99364.80;;;
79488;BMP180;68949;53.176;18.088;2023-07-24T08:53:41;99381.20;;;
79488;BMP180;68949;53.176;18.088;2023-07-24T08:56:12;99367.40;;;
79488;BMP180;68949;53.176;18.088;2023-07-24T08:58:39;99377.80;;;
79488;BMP180;68949;53.176;18.088;2023-07-24T09:01:08;99350.40;;;
79488;BMP180;68949;53.176;18.088;2023-07-24T09:03:36;99354.00;;;
79488;BMP180;68949;53.176;18.088;2023-07-24T09:06:03;99345.60;;;
79488;BMP180;68949;53.176;18.088;2023-07-24T09:08:45;99349.40;;;
79488;BMP180;68949;53.176;18.088;2023-07-24T09:11:14;99342.00;;;
79488;BMP180;68949;53.176;18.088;2023-07-24T09:13:43;99335.80;;;
79488;BMP180;68949;53.176;18.088;2023-07-24T09:16:24;99345.00;;;
79488;BMP180;68949;53.176;18.088;2023-07-24T09:18:53;99338.00;;;
79488;BMP180;68949;53.176;18.088;2023-07-24T09:21:30;99331.40;;;
79488;BMP180;68949;53.176;18.088;2023-07-24T09:24:11;99352.60;;;
79488;BMP180;68949;53.176;18.088;2023-07-24T09:26:52;99335.80;;;
79488;BMP180;68949;53.176;18.088;2023-07-24T09:29:19;99339.20;;;
79488;BMP180;68949;53.176;18.088;2023-07-24T09:31:46;99333.20;;;
79488;BMP180;68949;53.176;18.088;2023-07-24T09:34:17;99335.20;;;
79488;BMP180;68949;53.176;18.088;2023-07-24T09:36:45;99338.00;;;
79488;BMP180;68949;53.176;18.088;2023-07-24T09:39:12;99344.00;;;
79488;BMP180;68949;53.176;18.088;2023-07-24T09:41:39;99333.20;;;
79488;BMP180;68949;53.176;18.088;2023-07-24T09:44:07;99332.20;;;
79488;BMP180;68949;53.176;18.088;2023-07-24T09:46:34;99329.40;;;
79488;BMP180;68949;53.176;18.088;2023-07-24T09:49:01;99322.00;;;
79488;BMP180;68949;53.176;18.088;2023-07-24T09:51:29;99323.00;;;
79488;BMP180;68949;53.176;18.088;2023-07-24T09:54:13;99309.20;;;
79488;BMP180;68949;53.176;18.088;2023-07-24T09:56:42;99311.60;;;
79488;BMP180;68949;53.176;18.088;2023-07-24T09:59:11;99315.20;;;
79488;BMP180;68949;53.176;18.088;2023-07-24T10:01:39;99316.00;;;
79488;BMP180;68949;53.176;18.088;2023-07-24T10:04:07;99296.00;;;
79488;BMP180;68949;53.176;18.088;2023-07-24T10:06:36;99295.80;;;
79488;BMP180;68949;53.176;18.088;2023-07-24T10:09:04;99280.00;;;
79488;BMP180;68949;53.176;18.088;2023-07-24T10:11:33;99264.20;;;
79488;BMP180;68949;53.176;18.088;2023-07-24T10:14:01;99241.00;;;
79488;BMP180;68949;53.176;18.088;2023-07-24T10:16:29;99260.20;;;
79488;BMP180;68949;53.176;18.088;2023-07-24T10:18:56;99259.80;;;
79488;BMP180;68949;53.176;18.088;2023-07-24T10:21:27;99251.20;;;
79488;BMP180;68949;53.176;18.088;2023-07-24T10:23:59;99263.40;;;
79488;BMP180;68949;53.176;18.088;2023-07-24T10:26:29;99252.80;;;
79488;BMP180;68949;53.176;18.088;2023-07-24T10:28:57;99240.20;;;
79488;BMP180;68949;53.176;18.088;2023-07-24T10:31:25;99238.80;;;
79488;BMP180;68949;53.176;18.088;2023-07-24T10:34:04;99232.60;;;
79488;BMP180;68949;53.176;18.088;2023-07-24T10:36:36;99224.00;;;
79488;BMP180;68949;53.176;18.088;2023-07-24T10:39:15;99231.80;;;
79488;BMP180;68949;53.176;18.088;2023-07-24T10:41:42;99223.80;;;
79488;BMP180;68949;53.176;18.088;2023-07-24T10:44:13;99219.00;;;
79488;BMP180;68949;53.176;18.088;2023-07-24T10:46:41;99214.80;;;
79488;BMP180;68949;53.176;18.088;2023-07-24T10:49:11;99210.20;;;
79488;BMP180;68949;53.176;18.088;2023-07-24T10:51:38;99210.00;;;
79488;BMP180;68949;53.176;18.088;2023-07-24T10:54:05;99219.40;;;
79488;BMP180;68949;53.176;18.088;2023-07-24T10:56:32;99226.20;;;
79488;BMP180;68949;53.176;18.088;2023-07-24T10:59:04;99230.40;;;
79488;BMP180;68949;53.176;18.088;2023-07-24T11:01:32;99225.20;;;
79488;BMP180;68949;53.176;18.088;2023-07-24T11:03:59;99221.40;;;
79488;BMP180;68949;53.176;18.088;2023-07-24T11:06:27;99223.40;;;
79488;BMP180;68949;53.176;18.088;2023-07-24T11:08:57;99217.80;;;
79488;BMP180;68949;53.176;18.088;2023-07-24T11:11:34;99205.60;;;
79488;BMP180;68949;53.176;18.088;2023-07-24T11:14:03;99212.60;;;
79488;BMP180;68949;53.176;18.088;2023-07-24T11:16:31;99211.40;;;
79488;BMP180;68949;53.176;18.088;2023-07-24T11:18:59;99206.40;;;
79488;BMP180;68949;53.176;18.088;2023-07-24T11:21:26;99193.80;;;
79488;BMP180;68949;53.176;18.088;2023-07-24T11:23:55;99204.80;;;
79488;BMP180;68949;53.176;18.088;2023-07-24T11:26:24;99195.60;;;
79488;BMP180;68949;53.176;18.088;2023-07-24T11:28:52;99203.20;;;
79488;BMP180;68949;53.176;18.088;2023-07-24T11:31:20;99188.40;;;
79488;BMP180;68949;53.176;18.088;2023-07-24T11:33:51;99199.60;;;
79488;BMP180;68949;53.176;18.088;2023-07-24T11:36:19;99200.80;;;
79488;BMP180;68949;53.176;18.088;2023-07-24T11:38:46;99200.00;;;
79488;BMP180;68949;53.176;18.088;2023-07-24T11:41:17;99196.00;;;
79488;BMP180;68949;53.176;18.088;2023-07-24T11:43:49;99190.20;;;
79488;BMP180;68949;53.176;18.088;2023-07-24T11:46:24;99197.00;;;
79488;BMP180;68949;53.176;18.088;2023-07-24T11:48:52;99192.00;;;
79488;BMP180;68949;53.176;18.088;2023-07-24T11:51:20;99191.40;;;
79488;BMP180;68949;53.176;18.088;2023-07-24T11:53:47;99190.60;;;
79488;BMP180;68949;53.176;18.088;2023-07-24T11:56:17;99193.80;;;
79488;BMP180;68949;53.176;18.088;2023-07-24T11:58:43;99190.60;;;
79488;BMP180;68949;53.176;18.088;2023-07-24T12:01:12;99169.80;;;
79488;BMP180;68949;53.176;18.088;2023-07-24T12:03:41;99173.60;;;
79488;BMP180;68949;53.176;18.088;2023-07-24T12:06:15;99170.80;;;
79488;BMP180;68949;53.176;18.088;2023-07-24T12:08:44;99181.00;;;
79488;BMP180;68949;53.176;18.088;2023-07-24T12:11:17;99179.00;;;
79488;BMP180;68949;53.176;18.088;2023-07-24T12:13:47;99153.20;;;
79488;BMP180;68949;53.176;18.088;2023-07-24T12:16:14;99156.60;;;
79488;BMP180;68949;53.176;18.088;2023-07-24T12:18:40;99161.60;;;
79488;BMP180;68949;53.176;18.088;2023-07-24T12:21:07;99154.60;;;
79488;BMP180;68949;53.176;18.088;2023-07-24T12:23:34;99156.80;;;
79488;BMP180;68949;53.176;18.088;2023-07-24T12:26:00;99158.20;;;
79488;BMP180;68949;53.176;18.088;2023-07-24T12:28:27;99167.00;;;
79488;BMP180;68949;53.176;18.088;2023-07-24T12:30:53;99157.00;;;
79488;BMP180;68949;53.176;18.088;2023-07-24T12:33:20;99150.00;;;
79488;BMP180;68949;53.176;18.088;2023-07-24T12:35:51;99147.20;;;
79488;BMP180;68949;53.176;18.088;2023-07-24T12:38:18;99143.60;;;
79488;BMP180;68949;53.176;18.088;2023-07-24T12:40:45;99144.80;;;
79488;BMP180;68949;53.176;18.088;2023-07-24T12:43:14;99144.40;;;
79488;BMP180;68949;53.176;18.088;2023-07-24T12:45:41;99140.80;;;
79488;BMP180;68949;53.176;18.088;2023-07-24T12:48:08;99140.00;;;
79488;BMP180;68949;53.176;18.088;2023-07-24T12:50:35;99126.00;;;
79488;BMP180;68949;53.176;18.088;2023-07-24T12:53:01;99136.60;;;
79488;BMP180;68949;53.176;18.088;2023-07-24T12:55:28;99130.40;;;
79488;BMP180;68949;53.176;18.088;2023-07-24T12:57:56;99136.60;;;
79488;BMP180;68949;53.176;18.088;2023-07-24T13:00:23;99119.20;;;
79488;BMP180;68949;53.176;18.088;2023-07-24T13:02:50;99096.80;;;
79488;BMP180;68949;53.176;18.088;2023-07-24T13:05:16;99095.60;;;
79488;BMP180;68949;53.176;18.088;2023-07-24T13:07:43;99099.60;;;
79488;BMP180;68949;53.176;18.088;2023-07-24T13:10:12;99084.80;;;
79488;BMP180;68949;53.176;18.088;2023-07-24T13:12:39;99068.00;;;
79488;BMP180;68949;53.176;18.088;2023-07-24T13:15:06;99064.20;;;
79488;BMP180;68949;53.176;18.088;2023-07-24T13:17:33;99062.20;;;
79488;BMP180;68949;53.176;18.088;2023-07-24T13:20:00;99073.80;;;
79488;BMP180;68949;53.176;18.088;2023-07-24T13:22:26;99075.80;;;
79488;BMP180;68949;53.176;18.088;2023-07-24T13:24:53;99077.60;;;
79488;BMP180;68949;53.176;18.088;2023-07-24T13:27:20;99066.80;;;
79488;BMP180;68949;53.176;18.088;2023-07-24T13:29:47;99080.60;;;
79488;BMP180;68949;53.176;18.088;2023-07-24T13:32:14;99075.80;;;
79488;BMP180;68949;53.176;18.088;2023-07-24T13:34:42;99074.00;;;
79488;BMP180;68949;53.176;18.088;2023-07-24T13:37:09;99084.40;;;
79488;BMP180;68949;53.176;18.088;2023-07-24T13:39:36;99071.80;;;
79488;BMP180;68949;53.176;18.088;2023-07-24T13:42:04;99071.20;;;
79488;BMP180;68949;53.176;18.088;2023-07-24T13:44:31;99063.20;;;
79488;BMP180;68949;53.176;18.088;2023-07-24T13:46:58;99057.20;;;
79488;BMP180;68949;53.176;18.088;2023-07-24T13:49:25;99053.20;;;
79488;BMP180;68949;53.176;18.088;2023-07-24T13:51:52;99053.60;;;
79488;BMP180;68949;53.176;18.088;2023-07-24T13:54:19;99059.40;;;
79488;BMP180;68949;53.176;18.088;2023-07-24T13:56:46;99055.00;;;
79488;BMP180;68949;53.176;18.088;2023-07-24T13:59:12;99055.80;;;
79488;BMP180;68949;53.176;18.088;2023-07-24T14:01:39;99048.00;;;
79488;BMP180;68949;53.176;18.088;2023-07-24T14:04:06;99042.20;;;
79488;BMP180;68949;53.176;18.088;2023-07-24T14:06:33;99044.80;;;
79488;BMP180;68949;53.176;18.088;2023-07-24T14:08:59;99033.00;;;
79488;BMP180;68949;53.176;18.088;2023-07-24T14:11:26;99033.60;;;
79488;BMP180;68949;53.176;18.088;2023-07-24T14:13:54;99032.40;;;
79488;BMP180;68949;53.176;18.088;2023-07-24T14:16:21;99024.20;;;
79488;BMP180;68949;53.176;18.088;2023-07-24T14:18:48;99029.20;;;
79488;BMP180;68949;53.176;18.088;2023-07-24T14:21:14;99012.20;;;
79488;BMP180;68949;53.176;18.088;2023-07-24T14:23:41;99005.20;;;
79488;BMP180;68949;53.176;18.088;2023-07-24T14:26:08;99012.00;;;
79488;BMP180;68949;53.176;18.088;2023-07-24T14:28:34;99012.60;;;
79488;BMP180;68949;53.176;18.088;2023-07-24T14:31:01;99005.20;;;
79488;BMP180;68949;53.176;18.088;2023-07-24T14:33:28;98998.40;;;
79488;BMP180;68949;53.176;18.088;2023-07-24T14:35:55;98997.00;;;
79488;BMP180;68949;53.176;18.088;2023-07-24T14:38:22;98991.00;;;
79488;BMP180;68949;53.176;18.088;2023-07-24T14:40:48;98978.60;;;
79488;BMP180;68949;53.176;18.088;2023-07-24T14:43:15;98975.40;;;
79488;BMP180;68949;53.176;18.088;2023-07-24T14:45:41;98969.80;;;
79488;BMP180;68949;53.176;18.088;2023-07-24T14:48:08;98967.80;;;
79488;BMP180;68949;53.176;18.088;2023-07-24T14:50:35;98980.60;;;
79488;BMP180;68949;53.176;18.088;2023-07-24T14:53:02;98976.40;;;
79488;BMP180;68949;53.176;18.088;2023-07-24T14:55:28;98967.80;;;
79488;BMP180;68949;53.176;18.088;2023-07-24T14:57:55;98970.00;;;
79488;BMP180;68949;53.176;18.088;2023-07-24T15:00:22;98960.80;;;
79488;BMP180;68949;53.176;18.088;2023-07-24T15:02:48;98957.20;;;
79488;BMP180;68949;53.176;18.088;2023-07-24T15:05:15;98956.00;;;
79488;BMP180;68949;53.176;18.088;2023-07-24T15:07:42;98952.60;;;